createdAt,value
2022-10-04T00:02:00.852Z,47.88
2022-10-04T00:04:39.545Z,47.83
2022-10-04T00:07:11.928Z,48.02
2022-10-04T00:09:44.688Z,48.15
2022-10-04T00:12:22.437Z,47.76
2022-10-04T00:14:51.045Z,47.70
2022-10-04T00:17:25.446Z,47.86
2022-10-04T00:19:53.025Z,48.12
2022-10-04T00:22:21.704Z,48.05
2022-10-04T00:25:02.131Z,48.52
2022-10-04T00:27:29.376Z,48.28
2022-10-04T00:30:01.921Z,48.20
2022-10-04T00:32:47.645Z,48.30
2022-10-04T00:35:26.196Z,48.39
2022-10-04T00:38:07.679Z,47.71
2022-10-04T00:40:40.178Z,47.71
2022-10-04T00:43:46.796Z,48.27
2022-10-04T00:46:24.127Z,48.04
2022-10-04T00:49:02.931Z,48.40
2022-10-04T00:51:47.469Z,47.69
2022-10-04T00:54:20.159Z,47.86
2022-10-04T00:56:51.655Z,48.18
2022-10-04T00:59:36.984Z,48.14
2022-10-04T01:02:21.719Z,48.28
2022-10-04T01:04:57.662Z,47.96
2022-10-04T01:07:32.940Z,48.07
2022-10-04T01:10:07.598Z,48.37
2022-10-04T01:12:34.144Z,47.86
2022-10-04T01:15:17.896Z,48.21
2022-10-04T01:18:29.455Z,48.19
2022-10-04T01:21:23.400Z,47.64
2022-10-04T01:23:49.921Z,47.37
2022-10-04T01:26:34.860Z,47.65
2022-10-04T01:29:26.191Z,47.97
2022-10-04T01:31:55.018Z,48.13
2022-10-04T01:34:27.156Z,47.92
2022-10-04T01:36:56.332Z,48.11
2022-10-04T01:39:25.469Z,48.42
2022-10-04T01:42:01.884Z,48.46
2022-10-04T01:44:56.827Z,48.08
2022-10-04T01:47:35.479Z,47.71
2022-10-04T01:50:11.424Z,48.30
2022-10-04T01:52:47.012Z,48.17
2022-10-04T01:55:18.871Z,47.97
2022-10-04T01:57:50.531Z,48.08
2022-10-04T02:00:17.562Z,48.39
2022-10-04T02:03:05.069Z,47.79
2022-10-04T02:05:49.374Z,47.74
2022-10-04T02:08:18.453Z,48.26
2022-10-04T02:10:49.268Z,47.78
2022-10-04T02:13:20.780Z,47.47
2022-10-04T02:15:49.776Z,47.49
2022-10-04T02:18:21.229Z,47.71
2022-10-04T02:20:50.146Z,47.62
2022-10-04T02:23:20.284Z,47.72
2022-10-04T02:25:46.912Z,47.65
2022-10-04T02:28:15.471Z,47.47
2022-10-04T02:31:09.002Z,48.21
2022-10-04T02:33:44.149Z,47.84
2022-10-04T02:36:11.912Z,48.09
2022-10-04T02:38:48.024Z,47.46
2022-10-04T02:41:26.964Z,48.08
2022-10-04T02:44:15.392Z,47.66
2022-10-04T02:46:57.283Z,48.28
2022-10-04T02:49:35.079Z,47.99
2022-10-04T02:52:04.590Z,47.93
2022-10-04T02:54:38.408Z,48.09
2022-10-04T02:57:05.717Z,47.56
2022-10-04T02:59:35.545Z,48.26
2022-10-04T03:02:02.816Z,47.51
2022-10-04T03:04:38.071Z,47.68
2022-10-04T03:07:08.389Z,47.52
2022-10-04T03:09:37.808Z,48.21
2022-10-04T03:12:05.640Z,47.59
2022-10-04T03:14:33.463Z,47.99
2022-10-04T03:17:04.228Z,47.57
2022-10-04T03:19:32.914Z,47.50
2022-10-04T03:22:03.524Z,48.07
2022-10-04T03:24:31.453Z,48.22
2022-10-04T03:27:03.001Z,47.81
2022-10-04T03:29:32.245Z,47.49
2022-10-04T03:32:02.800Z,48.01
2022-10-04T03:34:41.644Z,47.91
2022-10-04T03:37:20.229Z,47.55
2022-10-04T03:39:52.797Z,48.00
2022-10-04T03:42:22.993Z,47.86
2022-10-04T03:44:52.370Z,48.01
2022-10-04T03:47:27.878Z,47.86
2022-10-04T03:49:58.001Z,48.26
2022-10-04T03:52:28.504Z,47.92
2022-10-04T03:54:59.648Z,48.31
2022-10-04T03:57:26.378Z,47.58
2022-10-04T03:59:53.050Z,48.41
2022-10-04T04:02:45.800Z,47.67
2022-10-04T04:05:31.641Z,47.93
2022-10-04T04:08:27.034Z,47.82
2022-10-04T04:10:58.148Z,47.82
2022-10-04T04:13:33.329Z,48.11
2022-10-04T04:16:03.831Z,47.92
2022-10-04T04:18:33.244Z,48.32
2022-10-04T04:21:03.043Z,48.00
2022-10-04T04:23:39.929Z,47.76
2022-10-04T04:26:12.600Z,47.55
2022-10-04T04:28:44.914Z,48.50
2022-10-04T04:31:28.394Z,48.32
2022-10-04T04:34:01.988Z,47.82
2022-10-04T04:36:32.026Z,48.09
2022-10-04T04:39:37.067Z,48.55
2022-10-04T04:42:18.120Z,48.10
2022-10-04T04:44:53.053Z,48.13
2022-10-04T04:47:46.319Z,48.12
2022-10-04T04:50:18.258Z,48.48
2022-10-04T04:52:51.946Z,48.43
2022-10-04T04:56:01.706Z,47.85
2022-10-04T04:58:46.771Z,48.43
2022-10-04T05:01:42.061Z,48.39
2022-10-04T05:04:08.785Z,48.26
2022-10-04T05:06:37.680Z,48.42
2022-10-04T05:09:05.485Z,48.02
2022-10-04T05:11:36.365Z,47.74
2022-10-04T05:14:09.545Z,48.65
2022-10-04T05:16:36.129Z,48.30
2022-10-04T05:19:25.134Z,47.91
2022-10-04T05:21:54.357Z,48.17
2022-10-04T05:24:30.996Z,47.96
2022-10-04T05:27:25.313Z,47.60
2022-10-04T05:30:44.372Z,48.33
2022-10-04T05:33:18.728Z,47.77
2022-10-04T05:36:01.178Z,47.86
2022-10-04T05:38:44.266Z,48.33
2022-10-04T05:41:33.657Z,48.52
2022-10-04T05:44:01.864Z,48.45
2022-10-04T05:46:34.787Z,47.91
2022-10-04T05:49:08.408Z,47.82
2022-10-04T05:51:47.845Z,47.74
2022-10-04T05:54:26.583Z,48.59
2022-10-04T05:57:08.238Z,48.15
2022-10-04T05:59:47.624Z,48.44
2022-10-04T06:02:37.000Z,48.28
2022-10-04T06:05:29.256Z,48.23
2022-10-04T06:08:03.515Z,48.23
2022-10-04T06:10:48.249Z,47.99
2022-10-04T06:13:36.778Z,47.76
2022-10-04T06:17:05.313Z,47.95
2022-10-04T06:19:37.912Z,48.19
2022-10-04T06:22:17.653Z,48.79
2022-10-04T06:24:49.320Z,48.34
2022-10-04T06:27:28.665Z,48.59
2022-10-04T06:30:06.035Z,48.46
2022-10-04T06:33:10.419Z,48.02
2022-10-04T06:36:04.557Z,48.79
2022-10-04T06:38:47.895Z,48.46
2022-10-04T06:41:42.287Z,48.29
2022-10-04T06:44:29.368Z,48.17
2022-10-04T06:47:32.981Z,48.28
2022-10-04T06:50:17.617Z,48.09
2022-10-04T06:53:16.498Z,47.78
2022-10-04T06:55:55.169Z,48.01
2022-10-04T06:58:43.252Z,47.92
2022-10-04T07:01:30.551Z,47.24
2022-10-04T07:04:10.578Z,47.83
2022-10-04T07:07:16.481Z,47.44
2022-10-04T07:09:45.754Z,47.10
2022-10-04T07:12:17.588Z,47.30
2022-10-04T07:14:52.001Z,47.16
2022-10-04T07:17:28.280Z,46.85
2022-10-04T07:19:56.056Z,46.76
2022-10-04T07:22:31.030Z,46.74
2022-10-04T07:25:08.271Z,47.38
2022-10-04T07:28:16.741Z,47.07
2022-10-04T07:31:23.154Z,47.54
2022-10-04T07:33:54.769Z,47.14
2022-10-04T07:36:50.181Z,47.27
2022-10-04T07:39:20.801Z,47.54
2022-10-04T07:42:26.388Z,47.67
2022-10-04T07:45:32.768Z,47.55
2022-10-04T07:48:23.518Z,46.63
2022-10-04T07:51:19.031Z,46.17
2022-10-04T07:54:00.645Z,46.31
2022-10-04T07:56:31.422Z,46.40
2022-10-04T07:59:33.088Z,47.28
2022-10-04T08:02:15.166Z,47.29
2022-10-04T08:05:01.651Z,47.21
2022-10-04T08:07:40.158Z,47.20
2022-10-04T08:10:13.259Z,46.98
2022-10-04T08:13:00.608Z,46.81
2022-10-04T08:15:35.450Z,46.45
2022-10-04T08:18:20.721Z,46.90
2022-10-04T08:20:55.686Z,47.27
2022-10-04T08:23:37.492Z,47.35
2022-10-04T08:26:13.573Z,47.22
2022-10-04T08:29:37.617Z,47.19
2022-10-04T08:32:41.742Z,46.89
2022-10-04T08:35:17.495Z,47.16
2022-10-04T08:38:03.132Z,47.50
2022-10-04T08:40:57.554Z,47.14
2022-10-04T08:43:52.552Z,47.18
2022-10-04T08:46:34.399Z,47.27
2022-10-04T08:49:19.502Z,46.42
2022-10-04T08:52:01.175Z,46.86
2022-10-04T08:54:58.279Z,47.69
2022-10-04T08:57:52.893Z,46.43
2022-10-04T09:00:26.455Z,46.85
2022-10-04T09:03:24.756Z,46.38
2022-10-04T09:05:57.339Z,46.05
2022-10-04T09:09:01.232Z,46.37
2022-10-04T09:11:58.503Z,47.35
2022-10-04T09:14:43.597Z,46.70
2022-10-04T09:17:23.119Z,45.97
2022-10-04T09:20:38.617Z,45.57
2022-10-04T09:23:37.399Z,42.26
2022-10-04T09:26:43.340Z,43.49
2022-10-04T09:29:22.205Z,44.61
2022-10-04T09:32:26.667Z,44.98
2022-10-04T09:35:21.556Z,46.03
2022-10-04T09:38:25.998Z,44.98
2022-10-04T09:41:10.827Z,45.21
2022-10-04T09:44:10.738Z,44.83
2022-10-04T09:46:56.620Z,44.33
2022-10-04T09:49:27.564Z,42.55
2022-10-04T09:52:28.971Z,40.68
2022-10-04T09:55:17.577Z,37.42
2022-10-04T09:58:29.416Z,37.73
2022-10-04T10:01:16.995Z,32.76
2022-10-04T10:04:21.381Z,38.33
2022-10-04T10:06:53.931Z,42.11
2022-10-04T10:09:51.166Z,43.55
2022-10-04T10:12:42.291Z,43.77
2022-10-04T10:15:16.785Z,37.69
2022-10-04T10:18:08.967Z,40.04
2022-10-04T10:20:50.372Z,39.18
2022-10-04T10:23:58.998Z,38.90
2022-10-04T10:26:49.867Z,41.89
2022-10-04T10:29:25.235Z,42.16
2022-10-04T10:32:29.989Z,42.56
2022-10-04T10:35:22.800Z,43.51
2022-10-04T10:38:10.985Z,43.67
2022-10-04T10:40:54.207Z,44.15
2022-10-04T10:43:34.958Z,44.35
2022-10-04T10:46:35.983Z,44.64
2022-10-04T10:49:40.280Z,45.40
2022-10-04T10:52:36.201Z,44.75
2022-10-04T10:55:26.986Z,44.73
2022-10-04T10:58:22.679Z,44.51
2022-10-04T11:01:29.763Z,44.96
2022-10-04T11:04:05.283Z,44.86
2022-10-04T11:07:10.306Z,45.27
2022-10-04T11:09:42.672Z,45.14
2022-10-04T11:12:21.292Z,45.21
2022-10-04T11:15:29.258Z,45.12
2022-10-04T11:18:16.020Z,45.67
2022-10-04T11:21:25.726Z,46.34
2022-10-04T11:24:28.875Z,45.20
2022-10-04T11:27:01.383Z,45.42
2022-10-04T11:29:57.431Z,45.82
2022-10-04T11:33:06.337Z,46.12
2022-10-04T11:35:54.031Z,45.35
2022-10-04T11:38:52.563Z,45.27
2022-10-04T11:41:28.212Z,45.50
2022-10-04T11:44:14.894Z,46.22
2022-10-04T11:47:10.014Z,46.16
2022-10-04T11:50:03.153Z,45.59
2022-10-04T11:53:03.946Z,46.52
2022-10-04T11:55:54.065Z,45.62
2022-10-04T11:58:43.903Z,42.51
2022-10-04T12:02:18.258Z,43.81
2022-10-04T12:05:07.168Z,44.79
2022-10-04T12:07:47.928Z,42.98
2022-10-04T12:10:40.561Z,38.96
2022-10-04T12:13:25.539Z,38.20
2022-10-04T12:16:00.956Z,37.55
2022-10-04T12:18:52.009Z,36.84
2022-10-04T12:21:36.669Z,36.28
2022-10-04T12:24:27.057Z,39.18
2022-10-04T12:27:08.747Z,40.69
2022-10-04T12:30:06.412Z,41.89
2022-10-04T12:32:57.967Z,42.45
2022-10-04T12:35:31.089Z,42.87
2022-10-04T12:38:26.200Z,42.64
2022-10-04T12:41:16.022Z,42.28
2022-10-04T12:43:52.834Z,41.46
2022-10-04T12:46:29.333Z,40.95
2022-10-04T12:49:34.094Z,41.43
2022-10-04T12:52:18.080Z,40.86
2022-10-04T12:54:53.006Z,38.98
2022-10-04T12:57:34.789Z,38.88
2022-10-04T13:00:14.544Z,39.96
2022-10-04T13:03:05.637Z,41.30
2022-10-04T13:05:47.377Z,42.14
2022-10-04T13:09:02.035Z,42.04
2022-10-04T13:12:02.032Z,41.72
2022-10-04T13:14:41.507Z,42.29
2022-10-04T13:17:30.724Z,42.99
2022-10-04T13:20:26.341Z,43.40
2022-10-04T13:23:22.019Z,43.80
2022-10-04T13:26:04.022Z,43.91
2022-10-04T13:28:56.034Z,43.42
2022-10-04T13:31:34.871Z,43.42
2022-10-04T13:34:21.749Z,43.28
2022-10-04T13:36:54.355Z,42.60
2022-10-04T13:39:24.071Z,42.94
2022-10-04T13:42:02.438Z,43.48
2022-10-04T13:45:00.258Z,43.58
2022-10-04T13:47:52.893Z,43.71
2022-10-04T13:50:42.591Z,43.04
2022-10-04T13:53:44.347Z,42.83
2022-10-04T13:56:40.164Z,42.26
2022-10-04T13:59:25.416Z,42.21
2022-10-04T14:02:19.343Z,43.00
2022-10-04T14:05:13.039Z,42.95
2022-10-04T14:08:03.935Z,43.40
2022-10-04T14:10:41.513Z,43.31
2022-10-04T14:13:45.245Z,43.60
2022-10-04T14:16:34.144Z,43.93
2022-10-04T14:19:12.665Z,44.04
2022-10-04T14:22:17.192Z,43.65
2022-10-04T14:25:21.651Z,42.36
2022-10-04T14:27:57.203Z,43.06
2022-10-04T14:30:39.590Z,42.91
2022-10-04T14:33:21.151Z,42.55
2022-10-04T14:36:28.564Z,42.56
2022-10-04T14:39:04.499Z,42.33
2022-10-04T14:42:08.716Z,42.88
2022-10-04T14:45:01.114Z,42.87
2022-10-04T14:47:39.283Z,43.32
2022-10-04T14:50:29.573Z,43.37
2022-10-04T14:53:12.063Z,43.95
2022-10-04T14:55:57.617Z,44.44
2022-10-04T14:58:41.568Z,44.58
2022-10-04T15:01:17.825Z,44.79
2022-10-04T15:03:50.322Z,44.74
2022-10-04T15:06:23.359Z,44.90
2022-10-04T15:08:58.943Z,44.87
2022-10-04T15:11:53.488Z,45.35
2022-10-04T15:14:59.764Z,45.88
2022-10-04T15:17:32.136Z,45.62
2022-10-04T15:20:16.969Z,45.70
2022-10-04T15:22:53.809Z,45.67
2022-10-04T15:25:53.212Z,46.05
2022-10-04T15:28:41.445Z,45.79
2022-10-04T15:31:41.508Z,46.35
2022-10-04T15:34:34.307Z,46.09
2022-10-04T15:37:20.002Z,46.50
2022-10-04T15:40:20.493Z,46.45
2022-10-04T15:43:27.158Z,46.49
2022-10-04T15:46:07.279Z,46.11
2022-10-04T15:48:55.915Z,46.55
2022-10-04T15:51:50.355Z,46.85
2022-10-04T15:55:04.388Z,46.83
2022-10-04T15:57:45.885Z,46.32
2022-10-04T16:00:25.979Z,46.46
2022-10-04T16:02:55.622Z,47.13
2022-10-04T16:05:24.935Z,47.17
2022-10-04T16:08:01.507Z,47.06
2022-10-04T16:11:00.498Z,46.98
2022-10-04T16:13:48.340Z,47.11
2022-10-04T16:16:18.120Z,47.17
2022-10-04T16:19:03.141Z,47.81
2022-10-04T16:21:42.130Z,46.81
2022-10-04T16:24:20.714Z,46.95
2022-10-04T16:26:47.765Z,47.29
2022-10-04T16:29:29.332Z,46.92
2022-10-04T16:32:05.088Z,47.18
2022-10-04T16:34:45.372Z,47.54
2022-10-04T16:37:53.686Z,48.00
2022-10-04T16:40:54.330Z,47.13
2022-10-04T16:43:20.832Z,47.41
2022-10-04T16:45:59.399Z,47.64
2022-10-04T16:48:38.522Z,47.58
2022-10-04T16:51:05.027Z,47.47
2022-10-04T16:54:14.309Z,47.86
2022-10-04T16:57:00.623Z,47.74
2022-10-04T16:59:39.181Z,47.44
2022-10-04T17:02:29.968Z,47.68
2022-10-04T17:05:03.043Z,47.40
2022-10-04T17:07:43.401Z,47.45
2022-10-04T17:10:30.926Z,47.87
2022-10-04T17:13:21.053Z,47.00
2022-10-04T17:16:10.300Z,47.47
2022-10-04T17:18:51.271Z,47.17
2022-10-04T17:21:39.388Z,47.34
2022-10-04T17:24:20.030Z,46.98
2022-10-04T17:27:39.245Z,47.39
2022-10-04T17:30:43.845Z,46.87
2022-10-04T17:33:25.401Z,47.24
2022-10-04T17:36:35.805Z,47.20
2022-10-04T17:39:16.736Z,47.51
2022-10-04T17:42:30.805Z,47.26
2022-10-04T17:45:24.840Z,47.33
2022-10-04T17:48:23.928Z,46.99
2022-10-04T17:51:47.611Z,47.52
2022-10-04T17:54:40.488Z,47.25
2022-10-04T17:57:09.252Z,47.78
2022-10-04T17:59:47.278Z,47.44
2022-10-04T18:02:27.855Z,47.00
2022-10-04T18:05:00.139Z,47.15
2022-10-04T18:07:41.671Z,47.27
2022-10-04T18:10:45.820Z,47.43
2022-10-04T18:13:19.414Z,47.28
2022-10-04T18:16:01.987Z,47.24
2022-10-04T18:18:39.791Z,47.49
2022-10-04T18:21:20.416Z,47.33
2022-10-04T18:23:57.464Z,47.34
2022-10-04T18:26:28.130Z,47.42
2022-10-04T18:28:55.076Z,47.73
2022-10-04T18:31:39.445Z,47.63
2022-10-04T18:34:28.514Z,47.02
2022-10-04T18:36:55.051Z,47.35
2022-10-04T18:39:24.343Z,46.97
2022-10-04T18:41:59.931Z,47.33
2022-10-04T18:44:44.397Z,46.72
2022-10-04T18:47:29.978Z,47.25
2022-10-04T18:50:02.944Z,47.11
2022-10-04T18:52:45.536Z,47.28
2022-10-04T18:55:18.496Z,47.36
2022-10-04T18:58:11.909Z,47.48
2022-10-04T19:01:03.542Z,47.72
2022-10-04T19:03:42.853Z,47.06
2022-10-04T19:06:19.807Z,47.69
2022-10-04T19:08:53.321Z,47.63
2022-10-04T19:11:38.110Z,47.64
2022-10-04T19:14:18.787Z,47.25
2022-10-04T19:17:03.253Z,47.43
2022-10-04T19:19:50.229Z,47.81
2022-10-04T19:22:26.831Z,47.72
2022-10-04T19:25:06.201Z,47.59
2022-10-04T19:27:40.643Z,47.74
2022-10-04T19:30:18.528Z,47.35
2022-10-04T19:33:14.102Z,47.60
2022-10-04T19:36:02.071Z,47.41
2022-10-04T19:38:44.258Z,47.45
2022-10-04T19:41:23.829Z,47.54
2022-10-04T19:43:59.216Z,47.17
2022-10-04T19:46:54.144Z,47.22
2022-10-04T19:49:33.934Z,47.59
2022-10-04T19:52:18.177Z,47.48
2022-10-04T19:54:44.765Z,47.95
2022-10-04T19:57:15.180Z,47.16
2022-10-04T19:59:46.016Z,47.74
2022-10-04T20:02:13.688Z,47.08
2022-10-04T20:04:42.211Z,47.54
2022-10-04T20:07:15.186Z,47.88
2022-10-04T20:09:44.000Z,47.93
2022-10-04T20:12:35.354Z,47.59
2022-10-04T20:15:28.041Z,47.63
2022-10-04T20:17:56.284Z,47.29
2022-10-04T20:20:38.720Z,48.06
2022-10-04T20:23:10.059Z,47.52
2022-10-04T20:25:45.916Z,47.28
2022-10-04T20:28:32.496Z,47.59
2022-10-04T20:31:01.214Z,47.79
2022-10-04T20:33:49.517Z,48.08
2022-10-04T20:36:21.949Z,47.87
2022-10-04T20:39:01.253Z,48.30
2022-10-04T20:41:49.559Z,48.21
2022-10-04T20:44:55.638Z,47.47
2022-10-04T20:47:51.426Z,47.99
2022-10-04T20:50:35.109Z,47.59
2022-10-04T20:53:15.370Z,47.75
2022-10-04T20:55:44.278Z,47.78
2022-10-04T20:58:32.983Z,47.63
2022-10-04T21:01:37.043Z,47.96
2022-10-04T21:04:32.968Z,47.72
2022-10-04T21:07:07.883Z,48.15
2022-10-04T21:09:38.861Z,48.02
2022-10-04T21:12:08.030Z,48.15
2022-10-04T21:14:38.031Z,48.58
2022-10-04T21:17:25.382Z,48.16
2022-10-04T21:19:51.977Z,48.91
2022-10-04T21:22:18.521Z,49.05
2022-10-04T21:24:51.170Z,48.86
2022-10-04T21:27:31.348Z,48.45
2022-10-04T21:29:59.219Z,48.88
2022-10-04T21:32:27.343Z,48.91
2022-10-04T21:34:54.841Z,48.91
2022-10-04T21:37:21.834Z,49.11
2022-10-04T21:39:48.685Z,48.70
2022-10-04T21:42:15.366Z,48.29
2022-10-04T21:44:42.338Z,48.48
2022-10-04T21:47:09.360Z,48.66
2022-10-04T21:49:36.451Z,48.39
2022-10-04T21:52:03.713Z,48.67
2022-10-04T21:54:30.302Z,48.49
2022-10-04T21:56:56.891Z,48.38
2022-10-04T21:59:23.581Z,48.45
2022-10-04T22:01:50.193Z,48.56
2022-10-04T22:04:17.329Z,48.55
2022-10-04T22:06:44.233Z,48.07
2022-10-04T22:09:11.343Z,48.67
2022-10-04T22:11:38.593Z,48.59
2022-10-04T22:14:05.176Z,48.66
2022-10-04T22:16:31.884Z,48.59
2022-10-04T22:18:58.618Z,48.37
2022-10-04T22:21:25.200Z,48.56
2022-10-04T22:23:51.761Z,48.47
2022-10-04T22:26:20.779Z,48.37
2022-10-04T22:28:52.378Z,48.56
2022-10-04T22:31:29.531Z,48.58
2022-10-04T22:33:57.137Z,47.94
2022-10-04T22:36:27.153Z,47.84
2022-10-04T22:39:12.830Z,47.80
2022-10-04T22:41:45.227Z,48.52
2022-10-04T22:44:20.956Z,48.40
2022-10-04T22:46:55.626Z,47.91
2022-10-04T22:49:34.873Z,47.82
2022-10-04T22:52:07.090Z,48.13
2022-10-04T22:54:35.559Z,48.47
2022-10-04T22:57:02.426Z,48.27
2022-10-04T22:59:37.746Z,48.20
2022-10-04T23:02:14.785Z,48.58
2022-10-04T23:04:45.463Z,48.43
2022-10-04T23:07:12.071Z,48.44
2022-10-04T23:09:38.709Z,48.28
2022-10-04T23:12:08.250Z,48.52
2022-10-04T23:14:36.889Z,47.96
2022-10-04T23:17:29.283Z,48.00
2022-10-04T23:20:03.817Z,48.83
2022-10-04T23:22:30.920Z,48.56
2022-10-04T23:24:58.033Z,48.74
2022-10-04T23:27:24.688Z,48.41
2022-10-04T23:30:02.642Z,48.49
2022-10-04T23:32:31.716Z,48.25
2022-10-04T23:35:00.234Z,48.98
2022-10-04T23:37:30.957Z,48.35
2022-10-04T23:39:57.964Z,48.40
2022-10-04T23:42:32.125Z,48.81
2022-10-04T23:45:00.309Z,48.71
2022-10-04T23:47:34.483Z,48.35
2022-10-04T23:50:01.654Z,48.77
2022-10-04T23:52:36.048Z,48.79
2022-10-04T23:55:10.761Z,48.17
2022-10-04T23:57:37.457Z,48.66
